sensor_id;sensor_type;location;lat;lon;timestamp;P1;durP1;ratioP1;P2;durP2;ratioP2
46561;SDS011;32289;42.688;23.330;2023-01-15T00:01:33;14.10;;;7.28;;
46561;SDS011;32289;42.688;23.330;2023-01-15T00:05:15;18.73;;;7.53;;
46561;SDS011;32289;42.688;23.330;2023-01-15T00:08:55;19.67;;;7.72;;
46561;SDS011;32289;42.688;23.330;2023-01-15T00:12:36;15.00;;;7.28;;
46561;SDS011;32289;42.688;23.330;2023-01-15T00:16:26;18.38;;;7.40;;
46561;SDS011;32289;42.688;23.330;2023-01-15T00:20:09;21.70;;;6.15;;
46561;SDS011;32289;42.688;23.330;2023-01-15T00:23:50;17.48;;;7.25;;
46561;SDS011;32289;42.688;23.330;2023-01-15T00:27:50;16.42;;;6.93;;
46561;SDS011;32289;42.688;23.330;2023-01-15T00:31:31;14.60;;;6.85;;
46561;SDS011;32289;42.688;23.330;2023-01-15T00:35:16;16.15;;;6.88;;
46561;SDS011;32289;42.688;23.330;2023-01-15T00:39:01;13.73;;;5.35;;
46561;SDS011;32289;42.688;23.330;2023-01-15T00:42:45;14.45;;;6.10;;
46561;SDS011;32289;42.688;23.330;2023-01-15T00:46:25;15.57;;;7.07;;
46561;SDS011;32289;42.688;23.330;2023-01-15T00:50:08;17.23;;;6.63;;
46561;SDS011;32289;42.688;23.330;2023-01-15T00:53:50;15.80;;;6.75;;
46561;SDS011;32289;42.688;23.330;2023-01-15T00:57:31;14.40;;;6.22;;
46561;SDS011;32289;42.688;23.330;2023-01-15T01:01:13;17.48;;;6.85;;
46561;SDS011;32289;42.688;23.330;2023-01-15T01:04:54;11.65;;;6.45;;
46561;SDS011;32289;42.688;23.330;2023-01-15T01:08:34;14.60;;;5.90;;
46561;SDS011;32289;42.688;23.330;2023-01-15T01:12:15;14.82;;;5.68;;
46561;SDS011;32289;42.688;23.330;2023-01-15T01:15:56;15.27;;;6.72;;
46561;SDS011;32289;42.688;23.330;2023-01-15T01:19:36;14.48;;;6.18;;
46561;SDS011;32289;42.688;23.330;2023-01-15T01:23:17;12.70;;;5.72;;
46561;SDS011;32289;42.688;23.330;2023-01-15T01:26:58;14.95;;;6.63;;
46561;SDS011;32289;42.688;23.330;2023-01-15T01:30:39;13.00;;;5.53;;
46561;SDS011;32289;42.688;23.330;2023-01-15T01:34:20;14.30;;;5.88;;
46561;SDS011;32289;42.688;23.330;2023-01-15T01:38:01;13.70;;;5.82;;
46561;SDS011;32289;42.688;23.330;2023-01-15T01:41:42;14.30;;;6.60;;
46561;SDS011;32289;42.688;23.330;2023-01-15T01:45:27;11.63;;;5.03;;
46561;SDS011;32289;42.688;23.330;2023-01-15T01:49:11;10.30;;;5.50;;
46561;SDS011;32289;42.688;23.330;2023-01-15T01:53:03;13.57;;;6.15;;
46561;SDS011;32289;42.688;23.330;2023-01-15T01:56:47;8.05;;;4.55;;
46561;SDS011;32289;42.688;23.330;2023-01-15T02:00:29;12.90;;;6.10;;
46561;SDS011;32289;42.688;23.330;2023-01-15T02:04:11;11.95;;;6.50;;
46561;SDS011;32289;42.688;23.330;2023-01-15T02:07:52;8.77;;;4.53;;
46561;SDS011;32289;42.688;23.330;2023-01-15T02:11:33;9.88;;;4.93;;
46561;SDS011;32289;42.688;23.330;2023-01-15T02:15:16;14.30;;;6.20;;
46561;SDS011;32289;42.688;23.330;2023-01-15T02:19:09;13.40;;;5.47;;
46561;SDS011;32289;42.688;23.330;2023-01-15T02:23:14;12.90;;;6.20;;
46561;SDS011;32289;42.688;23.330;2023-01-15T02:27:14;16.70;;;6.30;;
46561;SDS011;32289;42.688;23.330;2023-01-15T02:31:01;13.98;;;6.15;;
46561;SDS011;32289;42.688;23.330;2023-01-15T02:34:49;11.65;;;4.95;;
46561;SDS011;32289;42.688;23.330;2023-01-15T02:38:34;14.68;;;6.20;;
46561;SDS011;32289;42.688;23.330;2023-01-15T02:42:19;14.60;;;5.00;;
46561;SDS011;32289;42.688;23.330;2023-01-15T02:46:02;12.35;;;5.70;;
46561;SDS011;32289;42.688;23.330;2023-01-15T02:49:45;9.93;;;5.00;;
46561;SDS011;32289;42.688;23.330;2023-01-15T02:53:29;12.95;;;4.85;;
46561;SDS011;32289;42.688;23.330;2023-01-15T02:57:10;12.23;;;5.47;;
46561;SDS011;32289;42.688;23.330;2023-01-15T03:00:53;12.55;;;5.28;;
46561;SDS011;32289;42.688;23.330;2023-01-15T03:04:40;12.68;;;5.20;;
46561;SDS011;32289;42.688;23.330;2023-01-15T03:08:28;12.35;;;5.28;;
46561;SDS011;32289;42.688;23.330;2023-01-15T03:20:07;13.35;;;5.22;;
46561;SDS011;32289;42.688;23.330;2023-01-15T03:23:53;14.07;;;5.65;;
46561;SDS011;32289;42.688;23.330;2023-01-15T03:27:35;10.35;;;5.18;;
46561;SDS011;32289;42.688;23.330;2023-01-15T03:31:15;11.65;;;5.47;;
46561;SDS011;32289;42.688;23.330;2023-01-15T03:34:56;10.60;;;4.43;;
46561;SDS011;32289;42.688;23.330;2023-01-15T03:38:38;15.40;;;6.07;;
46561;SDS011;32289;42.688;23.330;2023-01-15T03:50:46;9.48;;;4.72;;
46561;SDS011;32289;42.688;23.330;2023-01-15T03:54:43;11.70;;;5.18;;
46561;SDS011;32289;42.688;23.330;2023-01-15T03:58:48;13.68;;;5.32;;
46561;SDS011;32289;42.688;23.330;2023-01-15T04:02:33;9.88;;;4.60;;
46561;SDS011;32289;42.688;23.330;2023-01-15T04:06:15;8.07;;;4.72;;
46561;SDS011;32289;42.688;23.330;2023-01-15T04:09:57;11.38;;;5.00;;
46561;SDS011;32289;42.688;23.330;2023-01-15T04:13:38;8.75;;;4.60;;
46561;SDS011;32289;42.688;23.330;2023-01-15T04:17:18;17.30;;;4.45;;
46561;SDS011;32289;42.688;23.330;2023-01-15T04:20:59;10.48;;;4.78;;
46561;SDS011;32289;42.688;23.330;2023-01-15T04:24:40;15.10;;;4.78;;
46561;SDS011;32289;42.688;23.330;2023-01-15T04:28:20;12.35;;;4.75;;
46561;SDS011;32289;42.688;23.330;2023-01-15T04:32:01;13.43;;;3.97;;
46561;SDS011;32289;42.688;23.330;2023-01-15T04:35:42;12.20;;;5.68;;
46561;SDS011;32289;42.688;23.330;2023-01-15T04:39:25;7.57;;;3.83;;
46561;SDS011;32289;42.688;23.330;2023-01-15T04:43:07;8.75;;;3.13;;
46561;SDS011;32289;42.688;23.330;2023-01-15T04:47:11;11.40;;;4.95;;
46561;SDS011;32289;42.688;23.330;2023-01-15T04:50:51;12.70;;;5.18;;
46561;SDS011;32289;42.688;23.330;2023-01-15T04:54:32;9.75;;;3.88;;
46561;SDS011;32289;42.688;23.330;2023-01-15T04:58:13;7.70;;;4.60;;
46561;SDS011;32289;42.688;23.330;2023-01-15T05:01:53;7.63;;;3.55;;
46561;SDS011;32289;42.688;23.330;2023-01-15T05:05:34;11.35;;;3.88;;
46561;SDS011;32289;42.688;23.330;2023-01-15T05:09:15;12.25;;;4.65;;
46561;SDS011;32289;42.688;23.330;2023-01-15T05:12:56;8.40;;;3.92;;
46561;SDS011;32289;42.688;23.330;2023-01-15T05:16:36;8.65;;;3.70;;
46561;SDS011;32289;42.688;23.330;2023-01-15T05:20:17;11.45;;;5.18;;
46561;SDS011;32289;42.688;23.330;2023-01-15T05:23:59;8.73;;;3.90;;
46561;SDS011;32289;42.688;23.330;2023-01-15T05:27:42;8.50;;;3.53;;
46561;SDS011;32289;42.688;23.330;2023-01-15T05:31:23;8.88;;;3.33;;
46561;SDS011;32289;42.688;23.330;2023-01-15T05:35:04;10.02;;;3.53;;
46561;SDS011;32289;42.688;23.330;2023-01-15T05:38:45;9.52;;;3.60;;
46561;SDS011;32289;42.688;23.330;2023-01-15T05:42:26;10.15;;;3.13;;
46561;SDS011;32289;42.688;23.330;2023-01-15T05:46:07;7.35;;;3.92;;
46561;SDS011;32289;42.688;23.330;2023-01-15T05:49:48;10.68;;;4.05;;
46561;SDS011;32289;42.688;23.330;2023-01-15T05:53:29;12.18;;;4.53;;
46561;SDS011;32289;42.688;23.330;2023-01-15T05:57:13;10.80;;;3.83;;
46561;SDS011;32289;42.688;23.330;2023-01-15T06:00:54;10.30;;;4.05;;
46561;SDS011;32289;42.688;23.330;2023-01-15T06:04:35;9.75;;;4.07;;
46561;SDS011;32289;42.688;23.330;2023-01-15T06:08:15;12.55;;;4.00;;
46561;SDS011;32289;42.688;23.330;2023-01-15T06:11:57;9.52;;;3.88;;
46561;SDS011;32289;42.688;23.330;2023-01-15T06:15:38;10.38;;;4.10;;
46561;SDS011;32289;42.688;23.330;2023-01-15T06:19:19;10.98;;;4.65;;
46561;SDS011;32289;42.688;23.330;2023-01-15T06:23:00;8.55;;;4.15;;
46561;SDS011;32289;42.688;23.330;2023-01-15T06:26:40;8.57;;;4.38;;
46561;SDS011;32289;42.688;23.330;2023-01-15T06:30:21;10.55;;;4.22;;
46561;SDS011;32289;42.688;23.330;2023-01-15T06:34:02;15.27;;;4.72;;
46561;SDS011;32289;42.688;23.330;2023-01-15T06:37:42;10.68;;;4.13;;
46561;SDS011;32289;42.688;23.330;2023-01-15T06:41:24;10.48;;;4.35;;
46561;SDS011;32289;42.688;23.330;2023-01-15T06:45:23;10.25;;;4.78;;
46561;SDS011;32289;42.688;23.330;2023-01-15T06:49:22;10.70;;;5.75;;
46561;SDS011;32289;42.688;23.330;2023-01-15T06:53:03;13.85;;;4.70;;
46561;SDS011;32289;42.688;23.330;2023-01-15T06:56:44;15.90;;;7.05;;
46561;SDS011;32289;42.688;23.330;2023-01-15T07:00:24;14.63;;;5.78;;
46561;SDS011;32289;42.688;23.330;2023-01-15T07:04:05;12.50;;;6.35;;
46561;SDS011;32289;42.688;23.330;2023-01-15T07:07:47;16.63;;;6.97;;
46561;SDS011;32289;42.688;23.330;2023-01-15T07:11:28;14.25;;;6.25;;
46561;SDS011;32289;42.688;23.330;2023-01-15T07:15:09;19.02;;;6.68;;
46561;SDS011;32289;42.688;23.330;2023-01-15T07:18:50;13.32;;;5.95;;
46561;SDS011;32289;42.688;23.330;2023-01-15T07:22:32;17.50;;;6.68;;
46561;SDS011;32289;42.688;23.330;2023-01-15T07:26:15;18.02;;;5.75;;
46561;SDS011;32289;42.688;23.330;2023-01-15T07:29:55;10.60;;;5.28;;
46561;SDS011;32289;42.688;23.330;2023-01-15T07:33:36;15.60;;;6.43;;
46561;SDS011;32289;42.688;23.330;2023-01-15T07:37:17;14.15;;;6.05;;
46561;SDS011;32289;42.688;23.330;2023-01-15T07:40:58;15.88;;;6.57;;
46561;SDS011;32289;42.688;23.330;2023-01-15T07:44:57;14.30;;;5.28;;
46561;SDS011;32289;42.688;23.330;2023-01-15T07:48:56;9.43;;;4.27;;
46561;SDS011;32289;42.688;23.330;2023-01-15T07:52:55;11.90;;;5.47;;
46561;SDS011;32289;42.688;23.330;2023-01-15T07:56:36;12.38;;;4.05;;
46561;SDS011;32289;42.688;23.330;2023-01-15T08:00:21;10.57;;;3.58;;
46561;SDS011;32289;42.688;23.330;2023-01-15T08:04:03;8.45;;;4.25;;
46561;SDS011;32289;42.688;23.330;2023-01-15T08:07:44;12.63;;;4.60;;
46561;SDS011;32289;42.688;23.330;2023-01-15T08:11:26;7.15;;;3.80;;
46561;SDS011;32289;42.688;23.330;2023-01-15T08:15:25;11.07;;;5.22;;
46561;SDS011;32289;42.688;23.330;2023-01-15T08:19:08;11.40;;;4.75;;
46561;SDS011;32289;42.688;23.330;2023-01-15T08:22:48;11.48;;;4.43;;
46561;SDS011;32289;42.688;23.330;2023-01-15T08:26:29;10.25;;;4.90;;
46561;SDS011;32289;42.688;23.330;2023-01-15T08:30:12;10.05;;;4.75;;
46561;SDS011;32289;42.688;23.330;2023-01-15T08:33:54;11.45;;;4.53;;
46561;SDS011;32289;42.688;23.330;2023-01-15T08:37:35;12.15;;;4.53;;
46561;SDS011;32289;42.688;23.330;2023-01-15T08:41:16;14.20;;;5.95;;
46561;SDS011;32289;42.688;23.330;2023-01-15T08:44:57;9.80;;;4.70;;
46561;SDS011;32289;42.688;23.330;2023-01-15T08:48:38;13.85;;;4.50;;
46561;SDS011;32289;42.688;23.330;2023-01-15T08:52:19;10.07;;;5.10;;
46561;SDS011;32289;42.688;23.330;2023-01-15T08:55:59;12.93;;;5.15;;
46561;SDS011;32289;42.688;23.330;2023-01-15T08:59:40;11.23;;;6.00;;
46561;SDS011;32289;42.688;23.330;2023-01-15T09:03:22;12.48;;;5.38;;
46561;SDS011;32289;42.688;23.330;2023-01-15T09:07:04;16.67;;;7.00;;
46561;SDS011;32289;42.688;23.330;2023-01-15T09:10:45;14.30;;;6.25;;
46561;SDS011;32289;42.688;23.330;2023-01-15T09:14:25;19.30;;;6.93;;
46561;SDS011;32289;42.688;23.330;2023-01-15T09:18:06;14.60;;;5.72;;
46561;SDS011;32289;42.688;23.330;2023-01-15T09:21:49;18.13;;;6.63;;
46561;SDS011;32289;42.688;23.330;2023-01-15T09:25:30;14.32;;;5.90;;
46561;SDS011;32289;42.688;23.330;2023-01-15T09:29:10;13.02;;;6.18;;
46561;SDS011;32289;42.688;23.330;2023-01-15T09:32:51;17.25;;;6.82;;
46561;SDS011;32289;42.688;23.330;2023-01-15T09:36:33;14.85;;;7.05;;
46561;SDS011;32289;42.688;23.330;2023-01-15T09:40:19;19.10;;;7.90;;
46561;SDS011;32289;42.688;23.330;2023-01-15T09:52:21;22.85;;;8.45;;
46561;SDS011;32289;42.688;23.330;2023-01-15T09:56:21;15.93;;;7.47;;
46561;SDS011;32289;42.688;23.330;2023-01-15T10:00:11;18.33;;;7.85;;
46561;SDS011;32289;42.688;23.330;2023-01-15T10:08:26;19.23;;;8.20;;
46561;SDS011;32289;42.688;23.330;2023-01-15T10:12:23;16.90;;;7.22;;
46561;SDS011;32289;42.688;23.330;2023-01-15T10:16:18;16.05;;;6.97;;
46561;SDS011;32289;42.688;23.330;2023-01-15T10:20:02;15.90;;;6.47;;
46561;SDS011;32289;42.688;23.330;2023-01-15T10:23:50;14.35;;;7.20;;
46561;SDS011;32289;42.688;23.330;2023-01-15T10:27:44;16.75;;;6.70;;
46561;SDS011;32289;42.688;23.330;2023-01-15T10:31:39;16.83;;;6.40;;
46561;SDS011;32289;42.688;23.330;2023-01-15T10:44:58;11.25;;;5.45;;
46561;SDS011;32289;42.688;23.330;2023-01-15T10:48:40;11.05;;;4.53;;
46561;SDS011;32289;42.688;23.330;2023-01-15T10:52:32;10.07;;;4.93;;
46561;SDS011;32289;42.688;23.330;2023-01-15T11:00:24;13.63;;;6.35;;
46561;SDS011;32289;42.688;23.330;2023-01-15T11:04:10;18.25;;;7.55;;
46561;SDS011;32289;42.688;23.330;2023-01-15T11:07:54;15.70;;;7.85;;
46561;SDS011;32289;42.688;23.330;2023-01-15T11:11:40;17.77;;;6.78;;
46561;SDS011;32289;42.688;23.330;2023-01-15T11:15:40;12.77;;;6.22;;
46561;SDS011;32289;42.688;23.330;2023-01-15T11:19:44;12.90;;;5.75;;
46561;SDS011;32289;42.688;23.330;2023-01-15T11:23:25;15.93;;;8.10;;
46561;SDS011;32289;42.688;23.330;2023-01-15T11:27:06;10.60;;;5.95;;
46561;SDS011;32289;42.688;23.330;2023-01-15T11:30:53;14.07;;;5.38;;
46561;SDS011;32289;42.688;23.330;2023-01-15T11:34:38;10.63;;;5.43;;
46561;SDS011;32289;42.688;23.330;2023-01-15T11:38:19;10.40;;;4.68;;
46561;SDS011;32289;42.688;23.330;2023-01-15T11:42:03;10.68;;;5.20;;
46561;SDS011;32289;42.688;23.330;2023-01-15T11:46:03;8.45;;;4.22;;
46561;SDS011;32289;42.688;23.330;2023-01-15T11:50:12;8.20;;;4.40;;
46561;SDS011;32289;42.688;23.330;2023-01-15T11:54:15;12.70;;;4.47;;
46561;SDS011;32289;42.688;23.330;2023-01-15T11:57:56;10.25;;;4.00;;
46561;SDS011;32289;42.688;23.330;2023-01-15T12:01:39;9.68;;;4.63;;
46561;SDS011;32289;42.688;23.330;2023-01-15T12:05:37;8.20;;;4.90;;
46561;SDS011;32289;42.688;23.330;2023-01-15T12:33:03;6.57;;;3.45;;
46561;SDS011;32289;42.688;23.330;2023-01-15T12:37:22;6.77;;;3.80;;
46561;SDS011;32289;42.688;23.330;2023-01-15T12:41:13;6.88;;;3.80;;
46561;SDS011;32289;42.688;23.330;2023-01-15T12:45:33;7.95;;;3.88;;
46561;SDS011;32289;42.688;23.330;2023-01-15T12:53:56;8.38;;;3.65;;
46561;SDS011;32289;42.688;23.330;2023-01-15T12:57:29;10.05;;;3.78;;
46561;SDS011;32289;42.688;23.330;2023-01-15T13:01:20;7.13;;;3.47;;
46561;SDS011;32289;42.688;23.330;2023-01-15T13:10:14;7.82;;;3.42;;
46561;SDS011;32289;42.688;23.330;2023-01-15T13:13:46;6.90;;;3.65;;
46561;SDS011;32289;42.688;23.330;2023-01-15T13:21:34;9.05;;;3.80;;
46561;SDS011;32289;42.688;23.330;2023-01-15T13:33:47;5.82;;;3.50;;
46561;SDS011;32289;42.688;23.330;2023-01-15T13:37:15;11.90;;;5.05;;
46561;SDS011;32289;42.688;23.330;2023-01-15T13:41:04;7.55;;;3.38;;
46561;SDS011;32289;42.688;23.330;2023-01-15T13:44:48;6.72;;;3.72;;
46561;SDS011;32289;42.688;23.330;2023-01-15T13:48:32;7.28;;;3.63;;
46561;SDS011;32289;42.688;23.330;2023-01-15T13:52:26;6.18;;;3.88;;
46561;SDS011;32289;42.688;23.330;2023-01-15T13:56:24;9.90;;;3.67;;
46561;SDS011;32289;42.688;23.330;2023-01-15T14:04:13;21.20;;;7.72;;
46561;SDS011;32289;42.688;23.330;2023-01-15T14:07:54;9.40;;;4.32;;
46561;SDS011;32289;42.688;23.330;2023-01-15T14:15:30;7.85;;;3.80;;
46561;SDS011;32289;42.688;23.330;2023-01-15T14:27:47;8.15;;;4.30;;
46561;SDS011;32289;42.688;23.330;2023-01-15T14:31:33;8.10;;;3.80;;
46561;SDS011;32289;42.688;23.330;2023-01-15T14:35:33;7.40;;;3.83;;
46561;SDS011;32289;42.688;23.330;2023-01-15T14:43:14;9.07;;;3.40;;
46561;SDS011;32289;42.688;23.330;2023-01-15T14:47:01;9.18;;;3.85;;
46561;SDS011;32289;42.688;23.330;2023-01-15T14:50:46;10.88;;;4.85;;
46561;SDS011;32289;42.688;23.330;2023-01-15T14:54:27;9.63;;;5.43;;
46561;SDS011;32289;42.688;23.330;2023-01-15T15:02:19;12.90;;;5.15;;
46561;SDS011;32289;42.688;23.330;2023-01-15T15:06:04;10.90;;;5.22;;
46561;SDS011;32289;42.688;23.330;2023-01-15T15:13:52;13.18;;;5.75;;
46561;SDS011;32289;42.688;23.330;2023-01-15T15:21:39;16.52;;;5.40;;
46561;SDS011;32289;42.688;23.330;2023-01-15T15:25:23;12.35;;;6.03;;
46561;SDS011;32289;42.688;23.330;2023-01-15T15:32:48;11.25;;;5.82;;
46561;SDS011;32289;42.688;23.330;2023-01-15T15:36:30;14.13;;;5.38;;
46561;SDS011;32289;42.688;23.330;2023-01-15T15:40:14;15.13;;;6.53;;
46561;SDS011;32289;42.688;23.330;2023-01-15T15:43:57;14.18;;;7.10;;
46561;SDS011;32289;42.688;23.330;2023-01-15T15:51:55;15.00;;;7.10;;
46561;SDS011;32289;42.688;23.330;2023-01-15T15:55:37;16.88;;;7.55;;
46561;SDS011;32289;42.688;23.330;2023-01-15T15:59:36;19.08;;;8.00;;
46561;SDS011;32289;42.688;23.330;2023-01-15T16:03:22;17.33;;;8.10;;
46561;SDS011;32289;42.688;23.330;2023-01-15T16:07:11;18.33;;;7.45;;
46561;SDS011;32289;42.688;23.330;2023-01-15T16:10:54;16.50;;;6.88;;
46561;SDS011;32289;42.688;23.330;2023-01-15T16:14:38;21.88;;;8.27;;
46561;SDS011;32289;42.688;23.330;2023-01-15T16:18:39;14.27;;;6.40;;
46561;SDS011;32289;42.688;23.330;2023-01-15T16:22:25;16.25;;;6.95;;
46561;SDS011;32289;42.688;23.330;2023-01-15T16:26:11;17.70;;;7.30;;
46561;SDS011;32289;42.688;23.330;2023-01-15T16:30:02;26.80;;;9.07;;
46561;SDS011;32289;42.688;23.330;2023-01-15T16:33:43;22.42;;;9.32;;
46561;SDS011;32289;42.688;23.330;2023-01-15T16:37:27;16.92;;;7.95;;
46561;SDS011;32289;42.688;23.330;2023-01-15T16:41:17;23.63;;;7.05;;
46561;SDS011;32289;42.688;23.330;2023-01-15T16:45:21;21.60;;;9.55;;
46561;SDS011;32289;42.688;23.330;2023-01-15T16:53:03;18.03;;;7.43;;
46561;SDS011;32289;42.688;23.330;2023-01-15T16:56:47;25.50;;;9.98;;
46561;SDS011;32289;42.688;23.330;2023-01-15T17:00:29;19.67;;;9.05;;
46561;SDS011;32289;42.688;23.330;2023-01-15T17:04:45;17.48;;;9.02;;
46561;SDS011;32289;42.688;23.330;2023-01-15T17:08:21;18.13;;;9.57;;
46561;SDS011;32289;42.688;23.330;2023-01-15T17:16:07;16.42;;;7.05;;
46561;SDS011;32289;42.688;23.330;2023-01-15T17:19:56;20.67;;;8.93;;
46561;SDS011;32289;42.688;23.330;2023-01-15T17:23:38;29.67;;;12.07;;
46561;SDS011;32289;42.688;23.330;2023-01-15T17:27:21;33.63;;;11.63;;
46561;SDS011;32289;42.688;23.330;2023-01-15T17:31:03;28.30;;;12.55;;
46561;SDS011;32289;42.688;23.330;2023-01-15T17:34:44;14.65;;;8.07;;
46561;SDS011;32289;42.688;23.330;2023-01-15T17:38:25;26.85;;;9.90;;
46561;SDS011;32289;42.688;23.330;2023-01-15T17:42:10;17.63;;;8.50;;
46561;SDS011;32289;42.688;23.330;2023-01-15T17:45:53;14.57;;;7.15;;
46561;SDS011;32289;42.688;23.330;2023-01-15T17:49:34;19.08;;;7.07;;
46561;SDS011;32289;42.688;23.330;2023-01-15T17:53:14;14.82;;;6.57;;
46561;SDS011;32289;42.688;23.330;2023-01-15T17:56:56;18.70;;;8.07;;
46561;SDS011;32289;42.688;23.330;2023-01-15T18:00:55;18.30;;;7.32;;
46561;SDS011;32289;42.688;23.330;2023-01-15T18:04:54;14.93;;;7.05;;
46561;SDS011;32289;42.688;23.330;2023-01-15T18:08:54;18.17;;;7.95;;
46561;SDS011;32289;42.688;23.330;2023-01-15T18:12:37;18.58;;;8.13;;
46561;SDS011;32289;42.688;23.330;2023-01-15T18:16:18;16.50;;;8.02;;
46561;SDS011;32289;42.688;23.330;2023-01-15T18:19:58;25.73;;;9.32;;
46561;SDS011;32289;42.688;23.330;2023-01-15T18:23:39;25.23;;;8.27;;
46561;SDS011;32289;42.688;23.330;2023-01-15T18:27:20;22.83;;;8.45;;
46561;SDS011;32289;42.688;23.330;2023-01-15T18:31:08;22.17;;;9.82;;
46561;SDS011;32289;42.688;23.330;2023-01-15T18:34:50;18.40;;;8.15;;
46561;SDS011;32289;42.688;23.330;2023-01-15T18:38:32;25.10;;;8.60;;
46561;SDS011;32289;42.688;23.330;2023-01-15T18:42:14;22.65;;;8.13;;
46561;SDS011;32289;42.688;23.330;2023-01-15T18:45:55;20.30;;;7.40;;
46561;SDS011;32289;42.688;23.330;2023-01-15T18:49:54;14.73;;;6.15;;
46561;SDS011;32289;42.688;23.330;2023-01-15T18:53:35;21.23;;;8.32;;
46561;SDS011;32289;42.688;23.330;2023-01-15T18:57:16;22.42;;;7.15;;
46561;SDS011;32289;42.688;23.330;2023-01-15T19:00:57;14.82;;;6.30;;
46561;SDS011;32289;42.688;23.330;2023-01-15T19:04:46;15.53;;;6.13;;
46561;SDS011;32289;42.688;23.330;2023-01-15T19:08:27;16.45;;;7.75;;
46561;SDS011;32289;42.688;23.330;2023-01-15T19:12:08;14.00;;;6.75;;
46561;SDS011;32289;42.688;23.330;2023-01-15T19:15:49;17.50;;;7.28;;
46561;SDS011;32289;42.688;23.330;2023-01-15T19:19:48;16.20;;;6.68;;
46561;SDS011;32289;42.688;23.330;2023-01-15T19:23:29;19.73;;;6.18;;
46561;SDS011;32289;42.688;23.330;2023-01-15T19:27:10;14.90;;;6.75;;
46561;SDS011;32289;42.688;23.330;2023-01-15T19:30:50;16.23;;;7.00;;
46561;SDS011;32289;42.688;23.330;2023-01-15T19:34:49;18.00;;;6.70;;
46561;SDS011;32289;42.688;23.330;2023-01-15T19:38:31;13.60;;;6.65;;
46561;SDS011;32289;42.688;23.330;2023-01-15T19:42:16;12.65;;;6.18;;
46561;SDS011;32289;42.688;23.330;2023-01-15T19:46:15;18.38;;;7.25;;
46561;SDS011;32289;42.688;23.330;2023-01-15T19:50:15;12.90;;;6.43;;
46561;SDS011;32289;42.688;23.330;2023-01-15T19:53:59;16.50;;;6.60;;
46561;SDS011;32289;42.688;23.330;2023-01-15T19:57:42;13.27;;;6.90;;
46561;SDS011;32289;42.688;23.330;2023-01-15T20:01:25;14.57;;;6.93;;
46561;SDS011;32289;42.688;23.330;2023-01-15T20:05:06;17.48;;;7.22;;
46561;SDS011;32289;42.688;23.330;2023-01-15T20:08:47;17.45;;;6.13;;
46561;SDS011;32289;42.688;23.330;2023-01-15T20:12:29;20.85;;;7.57;;
46561;SDS011;32289;42.688;23.330;2023-01-15T20:16:28;13.15;;;7.57;;
46561;SDS011;32289;42.688;23.330;2023-01-15T20:20:09;19.02;;;8.57;;
46561;SDS011;32289;42.688;23.330;2023-01-15T20:23:50;29.83;;;11.40;;
46561;SDS011;32289;42.688;23.330;2023-01-15T20:27:32;18.08;;;9.00;;
46561;SDS011;32289;42.688;23.330;2023-01-15T20:31:16;26.15;;;13.10;;
46561;SDS011;32289;42.688;23.330;2023-01-15T20:34:57;37.67;;;14.07;;
46561;SDS011;32289;42.688;23.330;2023-01-15T20:38:38;30.92;;;14.07;;
46561;SDS011;32289;42.688;23.330;2023-01-15T20:42:19;25.88;;;12.95;;
46561;SDS011;32289;42.688;23.330;2023-01-15T20:46:18;59.03;;;16.10;;
46561;SDS011;32289;42.688;23.330;2023-01-15T20:49:58;38.42;;;13.50;;
46561;SDS011;32289;42.688;23.330;2023-01-15T20:53:39;23.38;;;12.30;;
46561;SDS011;32289;42.688;23.330;2023-01-15T20:57:22;46.10;;;16.50;;
46561;SDS011;32289;42.688;23.330;2023-01-15T21:01:03;33.05;;;15.00;;
46561;SDS011;32289;42.688;23.330;2023-01-15T21:04:47;43.15;;;17.63;;
46561;SDS011;32289;42.688;23.330;2023-01-15T21:08:28;23.75;;;12.73;;
46561;SDS011;32289;42.688;23.330;2023-01-15T21:12:09;36.65;;;14.10;;
46561;SDS011;32289;42.688;23.330;2023-01-15T21:15:57;35.78;;;16.00;;
46561;SDS011;32289;42.688;23.330;2023-01-15T21:19:40;30.60;;;13.07;;
46561;SDS011;32289;42.688;23.330;2023-01-15T21:23:20;42.78;;;16.27;;
46561;SDS011;32289;42.688;23.330;2023-01-15T21:27:01;33.97;;;12.13;;
46561;SDS011;32289;42.688;23.330;2023-01-15T21:30:42;33.45;;;14.32;;
46561;SDS011;32289;42.688;23.330;2023-01-15T21:34:24;26.65;;;11.98;;
46561;SDS011;32289;42.688;23.330;2023-01-15T21:38:05;40.15;;;16.50;;
46561;SDS011;32289;42.688;23.330;2023-01-15T21:41:47;29.80;;;15.25;;
46561;SDS011;32289;42.688;23.330;2023-01-15T21:45:46;31.45;;;16.98;;
46561;SDS011;32289;42.688;23.330;2023-01-15T21:49:26;33.88;;;14.30;;
46561;SDS011;32289;42.688;23.330;2023-01-15T21:53:08;30.25;;;15.43;;
46561;SDS011;32289;42.688;23.330;2023-01-15T21:56:48;23.55;;;12.30;;
46561;SDS011;32289;42.688;23.330;2023-01-15T22:00:29;39.85;;;15.98;;
46561;SDS011;32289;42.688;23.330;2023-01-15T22:04:10;35.10;;;15.65;;
46561;SDS011;32289;42.688;23.330;2023-01-15T22:07:51;29.75;;;14.18;;
46561;SDS011;32289;42.688;23.330;2023-01-15T22:11:32;39.55;;;15.77;;
46561;SDS011;32289;42.688;23.330;2023-01-15T22:15:24;28.83;;;12.05;;
46561;SDS011;32289;42.688;23.330;2023-01-15T22:19:07;37.42;;;14.68;;
46561;SDS011;32289;42.688;23.330;2023-01-15T22:22:49;35.50;;;14.98;;
46561;SDS011;32289;42.688;23.330;2023-01-15T22:26:30;39.70;;;14.02;;
46561;SDS011;32289;42.688;23.330;2023-01-15T22:30:11;32.88;;;15.15;;
46561;SDS011;32289;42.688;23.330;2023-01-15T22:33:56;28.20;;;13.95;;
46561;SDS011;32289;42.688;23.330;2023-01-15T22:37:37;46.78;;;19.08;;
46561;SDS011;32289;42.688;23.330;2023-01-15T22:41:18;42.47;;;16.25;;
46561;SDS011;32289;42.688;23.330;2023-01-15T22:45:19;31.67;;;15.32;;
46561;SDS011;32289;42.688;23.330;2023-01-15T22:49:01;38.55;;;15.18;;
46561;SDS011;32289;42.688;23.330;2023-01-15T22:52:42;33.80;;;15.10;;
46561;SDS011;32289;42.688;23.330;2023-01-15T22:56:23;31.42;;;15.80;;
46561;SDS011;32289;42.688;23.330;2023-01-15T23:00:05;39.22;;;17.60;;
46561;SDS011;32289;42.688;23.330;2023-01-15T23:03:46;36.63;;;15.68;;
46561;SDS011;32289;42.688;23.330;2023-01-15T23:07:27;27.20;;;12.25;;
46561;SDS011;32289;42.688;23.330;2023-01-15T23:11:08;31.15;;;14.40;;
46561;SDS011;32289;42.688;23.330;2023-01-15T23:14:51;31.00;;;14.20;;
46561;SDS011;32289;42.688;23.330;2023-01-15T23:18:31;31.73;;;16.77;;
46561;SDS011;32289;42.688;23.330;2023-01-15T23:22:13;28.20;;;12.18;;
46561;SDS011;32289;42.688;23.330;2023-01-15T23:25:54;28.92;;;13.38;;
46561;SDS011;32289;42.688;23.330;2023-01-15T23:29:34;36.45;;;15.05;;
46561;SDS011;32289;42.688;23.330;2023-01-15T23:33:15;32.03;;;15.55;;
46561;SDS011;32289;42.688;23.330;2023-01-15T23:36:56;35.63;;;14.35;;
46561;SDS011;32289;42.688;23.330;2023-01-15T23:40:40;76.72;;;26.92;;
46561;SDS011;32289;42.688;23.330;2023-01-15T23:44:21;31.13;;;13.13;;
46561;SDS011;32289;42.688;23.330;2023-01-15T23:48:20;38.45;;;15.98;;
46561;SDS011;32289;42.688;23.330;2023-01-15T23:52:01;26.38;;;12.52;;
46561;SDS011;32289;42.688;23.330;2023-01-15T23:55:42;30.08;;;11.02;;
46561;SDS011;32289;42.688;23.330;2023-01-15T23:59:23;28.65;;;12.63;;
